createdAt,value
2019-05-25T00:01:13.635Z,91.60
2019-05-25T00:03:42.858Z,91.50
2019-05-25T00:06:12.091Z,91.60
2019-05-25T00:08:41.176Z,91.70
2019-05-25T00:11:10.090Z,91.50
2019-05-25T00:13:39.053Z,91.50
2019-05-25T00:16:08.037Z,91.80
2019-05-25T00:18:37.126Z,91.80
2019-05-25T00:21:06.227Z,92.10
2019-05-25T00:23:35.346Z,91.70
2019-05-25T00:26:04.657Z,92.10
2019-05-25T00:28:33.722Z,92.00
2019-05-25T00:31:02.968Z,92.10
2019-05-25T00:33:32.045Z,91.90
2019-05-25T00:36:01.150Z,92.30
2019-05-25T00:38:30.197Z,92.70
2019-05-25T00:40:59.288Z,92.30
2019-05-25T00:43:28.242Z,92.60
2019-05-25T00:45:57.234Z,92.60
2019-05-25T00:48:26.246Z,92.50
2019-05-25T00:50:55.270Z,92.70
2019-05-25T00:53:43.420Z,92.80
2019-05-25T00:56:12.487Z,92.60
2019-05-25T00:58:41.547Z,92.80
2019-05-25T01:01:10.627Z,93.20
2019-05-25T01:03:39.729Z,92.70
2019-05-25T01:06:08.664Z,93.30
2019-05-25T01:08:38.701Z,93.00
2019-05-25T01:11:07.749Z,93.30
2019-05-25T01:13:36.716Z,93.30
2019-05-25T01:16:05.929Z,93.20
2019-05-25T01:18:34.883Z,93.30
2019-05-25T01:21:03.847Z,93.30
2019-05-25T01:23:32.866Z,93.60
2019-05-25T01:26:01.835Z,93.30
2019-05-25T01:28:30.846Z,93.70
2019-05-25T01:30:59.931Z,93.50
2019-05-25T01:33:28.972Z,93.40
2019-05-25T01:35:58.132Z,93.50
2019-05-25T01:38:27.249Z,93.60
2019-05-25T01:40:56.141Z,93.60
2019-05-25T01:43:25.193Z,93.90
2019-05-25T01:45:54.129Z,94.30
2019-05-25T01:48:23.073Z,93.70
2019-05-25T01:50:52.069Z,93.80
2019-05-25T01:53:21.192Z,94.00
2019-05-25T02:08:53.457Z,94.20
2019-05-25T02:11:22.505Z,94.20
2019-05-25T02:13:51.657Z,94.40
2019-05-25T02:16:20.584Z,94.20
2019-05-25T02:18:49.710Z,94.20
2019-05-25T02:21:18.794Z,94.30
2019-05-25T02:23:47.805Z,94.20
2019-05-25T02:26:16.809Z,94.40
2019-05-25T02:28:45.871Z,94.50
2019-05-25T02:31:14.755Z,94.30
2019-05-25T02:33:43.800Z,94.20
2019-05-25T02:36:12.830Z,94.30
2019-05-25T02:38:41.885Z,94.60
2019-05-25T02:41:10.871Z,94.30
2019-05-25T02:43:40.264Z,94.50
2019-05-25T02:46:09.516Z,94.50
2019-05-25T02:48:38.537Z,94.60
2019-05-25T02:51:07.762Z,94.70
2019-05-25T02:53:36.805Z,94.50
2019-05-25T02:56:05.868Z,94.70
2019-05-25T02:58:34.849Z,94.40
2019-05-25T03:01:03.997Z,94.60
2019-05-25T03:03:33.261Z,94.60
2019-05-25T03:06:03.157Z,94.80
2019-05-25T03:08:32.877Z,94.80
2019-05-25T03:11:02.360Z,94.80
2019-05-25T03:13:32.868Z,94.70
2019-05-25T03:16:01.951Z,94.80
2019-05-25T03:18:30.913Z,94.70
2019-05-25T03:20:59.956Z,94.90
2019-05-25T03:23:29.054Z,95.00
2019-05-25T03:25:58.037Z,94.90
2019-05-25T03:28:27.259Z,94.80
2019-05-25T03:30:56.238Z,95.00
2019-05-25T03:33:25.265Z,94.90
2019-05-25T03:35:54.386Z,94.90
2019-05-25T03:38:23.448Z,94.90
2019-05-25T03:40:52.481Z,94.90
2019-05-25T03:43:21.500Z,95.00
2019-05-25T03:45:50.475Z,95.00
2019-05-25T03:48:19.647Z,95.00
2019-05-25T03:50:48.692Z,94.90
2019-05-25T03:53:17.775Z,95.10
2019-05-25T03:55:46.874Z,95.00
2019-05-25T03:58:15.903Z,95.00
2019-05-25T04:00:45.124Z,95.00
2019-05-25T04:03:14.190Z,95.10
2019-05-25T04:05:43.192Z,95.10
2019-05-25T04:08:12.285Z,95.00
2019-05-25T04:10:41.314Z,95.00
2019-05-25T04:13:10.316Z,95.10
2019-05-25T04:15:39.398Z,95.00
2019-05-25T04:18:08.486Z,95.10
2019-05-25T04:20:37.522Z,95.00
2019-05-25T04:23:06.671Z,95.10
2019-05-25T04:25:35.728Z,95.00
2019-05-25T04:28:04.814Z,95.00
2019-05-25T04:30:33.775Z,95.00
2019-05-25T04:33:02.813Z,95.10
2019-05-25T04:35:31.774Z,95.20
2019-05-25T04:38:00.736Z,95.00
2019-05-25T04:40:29.789Z,95.00
2019-05-25T04:42:58.841Z,95.20
2019-05-25T04:45:27.831Z,95.20
2019-05-25T04:47:56.929Z,95.10
2019-05-25T04:50:26.003Z,95.00
2019-05-25T04:52:55.025Z,95.10
2019-05-25T04:55:24.137Z,95.00
2019-05-25T04:57:53.140Z,94.90
2019-05-25T05:00:22.431Z,94.90
2019-05-25T05:02:51.463Z,94.90
2019-05-25T05:05:20.589Z,95.00
2019-05-25T05:07:49.542Z,94.90
2019-05-25T05:10:18.682Z,94.90
2019-05-25T05:12:47.664Z,94.80
2019-05-25T05:15:16.622Z,94.70
2019-05-25T05:17:45.538Z,94.90
2019-05-25T05:20:14.579Z,94.80
2019-05-25T05:22:43.937Z,94.80
2019-05-25T05:25:13.656Z,94.80
2019-05-25T05:27:42.626Z,94.80
2019-05-25T05:30:13.113Z,94.70
2019-05-25T05:32:42.232Z,94.90
2019-05-25T05:35:11.406Z,94.80
2019-05-25T05:37:41.453Z,94.80
2019-05-25T05:40:11.224Z,94.80
2019-05-25T05:42:42.017Z,94.70
2019-05-25T05:45:12.970Z,94.80
2019-05-25T05:47:43.885Z,94.70
2019-05-25T05:50:13.648Z,94.80
2019-05-25T05:52:42.685Z,94.60
2019-05-25T05:55:12.636Z,94.70
2019-05-25T05:57:41.609Z,94.80
2019-05-25T06:00:11.754Z,94.70
2019-05-25T06:02:40.758Z,94.70
2019-05-25T06:05:09.829Z,95.10
2019-05-25T06:07:38.942Z,94.60
2019-05-25T06:10:08.897Z,94.70
2019-05-25T06:12:38.023Z,94.60
2019-05-25T06:15:07.972Z,94.80
2019-05-25T06:17:36.959Z,94.70
2019-05-25T06:20:06.650Z,94.70
2019-05-25T06:22:35.683Z,94.60
2019-05-25T06:25:05.215Z,94.60
2019-05-25T06:27:34.237Z,94.80
2019-05-25T06:30:04.289Z,94.80
2019-05-25T06:32:33.578Z,94.70
2019-05-25T06:35:02.585Z,94.50
2019-05-25T06:37:31.791Z,95.30
2019-05-25T06:40:00.990Z,95.20
2019-05-25T06:42:30.167Z,95.00
2019-05-25T06:44:59.222Z,94.80
2019-05-25T06:47:28.266Z,94.90
2019-05-25T06:49:57.370Z,94.90
2019-05-25T06:52:26.362Z,94.90
2019-05-25T06:54:55.569Z,94.80
2019-05-25T06:57:24.690Z,94.80
2019-05-25T06:59:53.880Z,94.80
2019-05-25T07:02:22.953Z,94.90
2019-05-25T07:04:52.047Z,94.80
2019-05-25T07:07:21.127Z,94.80
2019-05-25T07:09:50.097Z,94.90
2019-05-25T07:12:19.129Z,94.70
2019-05-25T07:14:48.103Z,95.30
2019-05-25T07:17:17.141Z,94.90
2019-05-25T07:19:46.073Z,94.80
2019-05-25T07:22:15.189Z,94.90
2019-05-25T07:24:44.175Z,94.90
2019-05-25T07:27:13.672Z,95.00
2019-05-25T07:29:42.665Z,95.20
2019-05-25T07:32:11.799Z,95.10
2019-05-25T07:34:40.897Z,95.50
2019-05-25T07:37:09.957Z,95.10
2019-05-25T07:39:39.023Z,95.20
2019-05-25T07:42:08.146Z,95.10
2019-05-25T07:44:37.170Z,95.30
2019-05-25T07:47:06.270Z,95.20
2019-05-25T07:49:35.317Z,95.10
2019-05-25T07:52:04.498Z,95.10
2019-05-25T07:54:33.613Z,95.10
2019-05-25T07:57:02.630Z,95.10
2019-05-25T07:59:31.697Z,95.20
2019-05-25T08:02:00.868Z,95.00
2019-05-25T08:04:29.993Z,95.30
2019-05-25T08:06:58.971Z,95.10
2019-05-25T08:09:28.028Z,95.30
2019-05-25T08:11:57.161Z,95.40
2019-05-25T08:14:26.089Z,95.30
2019-05-25T08:16:55.365Z,95.20
2019-05-25T08:19:24.312Z,95.20
2019-05-25T08:21:53.365Z,95.70
2019-05-25T08:24:22.426Z,95.20
2019-05-25T08:26:51.434Z,95.20
2019-05-25T08:29:20.481Z,95.20
2019-05-25T08:31:49.582Z,95.20
2019-05-25T08:34:18.604Z,95.20
2019-05-25T08:36:47.690Z,95.20
2019-05-25T08:39:16.659Z,95.20
2019-05-25T08:41:45.820Z,95.30
2019-05-25T08:44:14.905Z,95.10
2019-05-25T08:46:43.913Z,95.10
2019-05-25T08:49:12.882Z,95.10
2019-05-25T08:51:41.969Z,95.10
2019-05-25T08:54:11.105Z,95.10
2019-05-25T08:56:40.309Z,95.00
2019-05-25T08:59:09.520Z,94.90
2019-05-25T09:01:38.663Z,94.80
2019-05-25T09:04:07.697Z,94.80
2019-05-25T09:06:36.721Z,94.80
2019-05-25T09:09:07.361Z,94.80
2019-05-25T09:11:36.438Z,94.70
2019-05-25T09:14:05.555Z,94.60
2019-05-25T09:16:34.548Z,94.60
2019-05-25T09:19:03.648Z,94.60
2019-05-25T09:21:32.724Z,94.60
2019-05-25T09:24:01.885Z,94.40
2019-05-25T09:26:30.970Z,94.40
2019-05-25T09:29:04.322Z,94.40
2019-05-25T09:31:30.770Z,94.50
2019-05-25T09:33:59.829Z,94.40
2019-05-25T09:36:28.721Z,94.20
2019-05-25T09:38:57.761Z,94.30
2019-05-25T09:41:27.249Z,94.30
2019-05-25T09:43:56.674Z,94.20
2019-05-25T09:46:25.936Z,94.10
2019-05-25T09:48:54.916Z,94.10
2019-05-25T09:51:24.107Z,94.00
2019-05-25T09:53:53.341Z,94.10
2019-05-25T09:56:22.403Z,94.00
2019-05-25T09:58:51.376Z,94.00
2019-05-25T10:01:20.404Z,94.00
2019-05-25T10:03:49.438Z,93.90
2019-05-25T10:06:18.719Z,93.80
2019-05-25T10:08:47.834Z,93.70
2019-05-25T10:11:16.854Z,93.80
2019-05-25T10:13:45.937Z,93.80
2019-05-25T10:16:14.893Z,93.70
2019-05-25T10:18:43.978Z,94.00
2019-05-25T10:21:14.967Z,93.60
2019-05-25T10:23:43.721Z,93.40
2019-05-25T10:26:13.041Z,93.30
2019-05-25T10:28:42.179Z,93.40
2019-05-25T10:31:11.425Z,93.30
2019-05-25T10:33:40.313Z,93.30
2019-05-25T10:36:09.487Z,93.10
2019-05-25T10:38:38.530Z,93.10
2019-05-25T10:41:07.549Z,93.00
2019-05-25T10:43:36.512Z,92.90
2019-05-25T10:46:05.635Z,92.80
2019-05-25T10:48:34.727Z,92.90
2019-05-25T10:51:03.689Z,92.90
2019-05-25T10:53:32.744Z,92.70
2019-05-25T10:56:01.725Z,92.80
2019-05-25T10:58:30.860Z,92.80
2019-05-25T11:00:59.897Z,92.60
2019-05-25T11:03:29.174Z,92.70
2019-05-25T11:05:58.173Z,92.70
2019-05-25T11:08:27.355Z,92.70
2019-05-25T11:10:56.612Z,92.60
2019-05-25T11:13:25.544Z,92.70
2019-05-25T11:15:54.686Z,92.30
2019-05-25T11:18:23.896Z,92.60
2019-05-25T11:20:53.014Z,92.60
2019-05-25T11:23:21.970Z,92.50
2019-05-25T11:25:50.920Z,92.50
2019-05-25T11:28:19.945Z,92.50
2019-05-25T11:30:49.008Z,92.40
2019-05-25T11:33:18.050Z,92.60
2019-05-25T11:35:47.116Z,92.50
2019-05-25T11:38:16.120Z,92.40
2019-05-25T11:40:45.154Z,92.50
2019-05-25T11:43:14.384Z,92.30
2019-05-25T11:45:45.342Z,92.20
2019-05-25T11:48:14.203Z,92.30
2019-05-25T11:50:43.248Z,92.30
2019-05-25T11:53:12.321Z,92.20
2019-05-25T11:55:41.207Z,92.20
2019-05-25T11:58:10.370Z,92.00
2019-05-25T12:00:39.633Z,92.10
2019-05-25T12:03:08.703Z,92.10
2019-05-25T12:05:37.762Z,91.90
2019-05-25T12:08:06.824Z,91.90
2019-05-25T12:10:35.894Z,91.90
2019-05-25T12:13:05.107Z,91.90
2019-05-25T12:15:34.177Z,91.70
2019-05-25T12:18:03.155Z,91.60
2019-05-25T12:20:32.278Z,92.00
2019-05-25T12:23:01.443Z,91.70
2019-05-25T12:25:30.698Z,91.70
2019-05-25T12:27:59.777Z,91.70
2019-05-25T12:30:40.470Z,91.80
2019-05-25T12:32:59.522Z,92.00
2019-05-25T12:35:28.607Z,92.00
2019-05-25T12:37:57.671Z,91.70
2019-05-25T12:40:26.977Z,91.80
2019-05-25T12:42:55.984Z,91.70
2019-05-25T12:45:25.081Z,91.90
2019-05-25T12:47:54.651Z,91.90
2019-05-25T12:50:23.734Z,91.90
2019-05-25T12:52:52.718Z,92.00
2019-05-25T12:55:21.734Z,92.00
2019-05-25T12:57:51.518Z,92.20
2019-05-25T13:00:21.289Z,92.00
2019-05-25T13:02:50.470Z,92.00
2019-05-25T13:05:33.088Z,91.60
2019-05-25T13:07:50.326Z,91.80
2019-05-25T13:10:19.368Z,91.70
2019-05-25T13:12:48.644Z,91.80
2019-05-25T13:15:17.693Z,91.80
2019-05-25T13:17:46.754Z,92.00
2019-05-25T13:20:16.110Z,91.90
2019-05-25T13:22:45.126Z,91.80
2019-05-25T13:25:14.148Z,92.00
2019-05-25T13:27:43.199Z,92.10
2019-05-25T13:30:12.325Z,92.20
2019-05-25T13:32:41.274Z,92.40
2019-05-25T13:35:10.400Z,92.10
2019-05-25T13:37:39.714Z,92.20
2019-05-25T13:40:09.127Z,92.30
2019-05-25T13:42:38.131Z,92.30
2019-05-25T13:45:07.517Z,92.40
2019-05-25T13:47:36.575Z,92.50
2019-05-25T13:50:06.628Z,92.40
2019-05-25T13:52:35.780Z,92.50
2019-05-25T13:55:05.411Z,92.50
2019-05-25T13:57:34.428Z,92.50
2019-05-25T14:00:03.487Z,92.50
2019-05-25T14:02:32.665Z,92.60
2019-05-25T14:05:01.783Z,92.70
2019-05-25T14:07:30.945Z,92.70
2019-05-25T14:10:00.505Z,92.70
2019-05-25T14:12:29.777Z,92.80
2019-05-25T14:14:58.819Z,92.80
2019-05-25T14:17:27.826Z,92.80
2019-05-25T14:19:56.905Z,92.90
2019-05-25T14:22:25.940Z,92.80
2019-05-25T14:24:54.909Z,92.90
2019-05-25T14:27:23.928Z,93.00
2019-05-25T14:29:52.951Z,93.00
2019-05-25T14:32:22.048Z,92.80
2019-05-25T14:34:51.033Z,92.80
2019-05-25T14:37:20.151Z,92.90
2019-05-25T14:39:49.189Z,92.80
2019-05-25T14:42:18.226Z,92.90
2019-05-25T14:44:47.254Z,92.70
2019-05-25T14:47:16.176Z,92.80
2019-05-25T14:49:45.188Z,92.90
2019-05-25T14:52:14.499Z,92.80
2019-05-25T14:54:43.520Z,92.70
2019-05-25T14:57:12.621Z,92.50
2019-05-25T14:59:41.609Z,92.50
2019-05-25T15:02:10.586Z,92.40
2019-05-25T15:04:39.650Z,92.40
2019-05-25T15:07:08.740Z,92.30
2019-05-25T15:09:37.804Z,92.30
2019-05-25T15:12:06.816Z,92.40
2019-05-25T15:14:35.952Z,92.50
2019-05-25T15:17:05.091Z,92.40
2019-05-25T15:19:34.131Z,92.30
2019-05-25T15:22:03.276Z,92.30
2019-05-25T15:24:32.334Z,92.30
2019-05-25T15:27:01.306Z,92.30
2019-05-25T15:29:30.378Z,92.20
2019-05-25T15:31:59.424Z,92.10
2019-05-25T15:34:28.514Z,92.00
2019-05-25T15:36:57.577Z,91.90
2019-05-25T15:39:26.560Z,92.00
2019-05-25T15:41:55.600Z,91.90
2019-05-25T15:44:24.568Z,91.90
2019-05-25T15:46:53.718Z,92.10
2019-05-25T15:49:32.914Z,91.80
2019-05-25T15:51:53.850Z,91.90
2019-05-25T15:54:22.926Z,92.00
2019-05-25T15:56:51.877Z,92.10
2019-05-25T15:59:23.514Z,92.10
2019-05-25T16:01:51.726Z,92.00
2019-05-25T16:04:20.713Z,92.30
2019-05-25T16:06:49.799Z,92.10
2019-05-25T16:09:19.026Z,92.00
2019-05-25T16:11:48.062Z,91.80
2019-05-25T16:14:17.041Z,91.90
2019-05-25T16:16:46.178Z,91.80
2019-05-25T16:19:15.206Z,91.70
2019-05-25T16:21:44.171Z,91.60
2019-05-25T16:24:13.255Z,91.50
2019-05-25T16:26:46.016Z,91.40
2019-05-25T16:29:12.956Z,91.30
2019-05-25T16:31:42.009Z,91.10
2019-05-25T16:34:10.929Z,90.80
2019-05-25T16:36:39.822Z,90.90
2019-05-25T16:39:09.071Z,90.70
2019-05-25T16:41:38.098Z,90.50
2019-05-25T16:44:07.094Z,90.00
2019-05-25T16:46:36.086Z,90.00
2019-05-25T16:49:05.106Z,89.40
2019-05-25T16:51:34.165Z,88.90
2019-05-25T16:54:03.349Z,88.70
2019-05-25T16:56:32.514Z,88.00
2019-05-25T16:59:01.625Z,88.00
2019-05-25T17:01:47.026Z,88.20
2019-05-25T17:04:01.447Z,87.40
2019-05-25T17:06:30.710Z,87.40
2019-05-25T17:08:59.804Z,87.10
2019-05-25T17:11:29.001Z,86.90
2019-05-25T17:13:57.907Z,86.60
2019-05-25T17:16:27.011Z,86.60
2019-05-25T17:18:55.901Z,86.50
2019-05-25T17:21:24.941Z,86.30
2019-05-25T17:23:53.903Z,86.40
2019-05-25T17:26:23.013Z,86.20
2019-05-25T17:28:51.984Z,86.00
2019-05-25T17:31:20.949Z,86.00
2019-05-25T17:33:50.064Z,85.70
2019-05-25T17:36:19.143Z,85.80
2019-05-25T17:38:48.189Z,86.00
2019-05-25T17:41:17.126Z,86.20
2019-05-25T17:43:46.474Z,86.30
2019-05-25T17:46:15.509Z,86.40
2019-05-25T17:48:44.486Z,87.50
2019-05-25T17:51:13.553Z,86.60
2019-05-25T17:53:42.515Z,86.90
2019-05-25T17:56:11.538Z,87.10
2019-05-25T17:58:40.548Z,87.20
2019-05-25T18:01:09.465Z,87.10
2019-05-25T18:03:38.624Z,87.20
2019-05-25T18:06:07.658Z,87.50
2019-05-25T18:08:36.725Z,87.60
2019-05-25T18:11:05.758Z,87.80
2019-05-25T18:13:34.824Z,88.10
2019-05-25T18:16:06.726Z,88.40
2019-05-25T18:18:35.787Z,88.40
2019-05-25T18:21:04.845Z,88.50
2019-05-25T18:23:33.922Z,88.30
2019-05-25T18:26:03.003Z,88.60
2019-05-25T18:28:31.983Z,88.90
2019-05-25T18:31:00.950Z,88.80
2019-05-25T18:33:30.047Z,89.00
2019-05-25T18:35:59.156Z,89.00
2019-05-25T18:38:28.264Z,89.20
2019-05-25T18:40:57.360Z,89.30
2019-05-25T18:43:26.438Z,89.40
2019-05-25T18:45:55.523Z,89.50
2019-05-25T18:48:24.544Z,89.80
2019-05-25T18:50:53.738Z,89.80
2019-05-25T18:53:22.753Z,90.00
2019-05-25T18:55:51.726Z,89.90
2019-05-25T18:58:20.774Z,90.00
2019-05-25T19:00:49.873Z,90.00
2019-05-25T19:03:18.967Z,90.10
2019-05-25T19:05:47.988Z,90.20
2019-05-25T19:08:17.038Z,90.40
2019-05-25T19:10:46.082Z,90.40
2019-05-25T19:13:15.095Z,90.40
2019-05-25T19:15:44.088Z,90.50
2019-05-25T19:18:13.126Z,90.60
2019-05-25T19:20:42.897Z,90.60
2019-05-25T19:23:11.994Z,90.80
2019-05-25T19:25:40.954Z,90.40
2019-05-25T19:28:09.906Z,90.70
2019-05-25T19:30:38.974Z,90.80
2019-05-25T19:33:07.935Z,90.80
2019-05-25T19:35:37.087Z,90.60
2019-05-25T19:38:06.032Z,90.60
2019-05-25T19:40:35.114Z,90.80
2019-05-25T19:43:04.206Z,90.60
2019-05-25T19:45:33.193Z,90.70
2019-05-25T19:48:02.289Z,90.60
2019-05-25T19:50:31.337Z,90.60
2019-05-25T19:53:00.490Z,90.60
2019-05-25T19:55:29.586Z,90.60
2019-05-25T19:57:58.566Z,90.60
2019-05-25T20:00:27.583Z,90.50
2019-05-25T20:02:57.226Z,90.60
2019-05-25T20:05:26.178Z,90.50
2019-05-25T20:07:55.196Z,90.50
2019-05-25T20:10:24.256Z,90.60
2019-05-25T20:12:53.215Z,90.60
2019-05-25T20:15:22.261Z,90.60
2019-05-25T20:17:51.333Z,90.70
2019-05-25T20:20:20.687Z,90.80
2019-05-25T20:22:49.627Z,90.80
2019-05-25T20:25:18.650Z,90.90
2019-05-25T20:27:47.611Z,91.00
2019-05-25T20:30:16.808Z,91.10
2019-05-25T20:32:45.906Z,91.20
2019-05-25T20:35:31.245Z,91.20
2019-05-25T20:37:46.202Z,91.30
2019-05-25T20:40:15.923Z,91.40
2019-05-25T20:42:45.407Z,91.50
2019-05-25T20:45:14.846Z,91.60
2019-05-25T20:47:44.005Z,91.70
2019-05-25T20:50:13.282Z,91.60
2019-05-25T20:52:42.337Z,91.70
2019-05-25T20:55:12.020Z,92.10
2019-05-25T20:57:41.198Z,91.90
2019-05-25T21:00:10.740Z,91.70
2019-05-25T21:02:39.785Z,91.90
2019-05-25T21:05:09.449Z,91.90
2019-05-25T21:07:38.555Z,91.80
2019-05-25T21:10:07.953Z,92.00
2019-05-25T21:12:37.056Z,92.20
2019-05-25T21:15:06.481Z,92.10
2019-05-25T21:17:35.433Z,92.30
2019-05-25T21:20:05.283Z,92.50
2019-05-25T21:22:34.335Z,92.50
2019-05-25T21:25:05.959Z,92.60
2019-05-25T21:27:34.167Z,92.70
2019-05-25T21:30:03.418Z,92.90
2019-05-25T21:32:32.598Z,92.80
2019-05-25T21:35:01.626Z,93.20
2019-05-25T21:37:30.738Z,93.10
2019-05-25T21:39:59.703Z,93.30
2019-05-25T21:42:28.830Z,93.40
2019-05-25T21:44:57.804Z,93.50
2019-05-25T21:47:26.750Z,93.50
2019-05-25T21:49:55.724Z,93.70
2019-05-25T21:52:24.777Z,93.70
2019-05-25T21:54:53.871Z,93.80
2019-05-25T21:57:22.835Z,93.90
2019-05-25T21:59:51.736Z,94.10
2019-05-25T22:02:20.792Z,94.10
2019-05-25T22:04:49.844Z,94.10
2019-05-25T22:07:18.914Z,94.20
2019-05-25T22:09:47.979Z,94.30
2019-05-25T22:12:16.998Z,94.20
2019-05-25T22:14:46.227Z,94.40
2019-05-25T22:17:15.293Z,94.50
2019-05-25T22:19:44.414Z,94.70
2019-05-25T22:22:13.363Z,94.90
2019-05-25T22:24:42.328Z,94.80
2019-05-25T22:27:11.296Z,94.80
2019-05-25T22:29:40.238Z,95.00
2019-05-25T22:32:09.185Z,95.20
2019-05-25T22:34:38.241Z,95.20
2019-05-25T22:37:07.275Z,95.10
2019-05-25T22:39:36.263Z,95.00
2019-05-25T22:42:05.332Z,95.20
2019-05-25T22:44:34.310Z,95.40
2019-05-25T22:47:03.290Z,95.50
2019-05-25T22:49:32.254Z,95.50
2019-05-25T22:52:01.410Z,95.60
2019-05-25T22:54:30.485Z,95.60
2019-05-25T22:56:59.531Z,95.60
2019-05-25T22:59:28.533Z,95.60
2019-05-25T23:01:57.850Z,95.60
2019-05-25T23:04:26.887Z,95.80
2019-05-25T23:06:58.247Z,95.80
2019-05-25T23:09:26.942Z,95.90
2019-05-25T23:11:56.020Z,95.90
2019-05-25T23:14:24.905Z,96.00
2019-05-25T23:16:54.260Z,96.00
2019-05-25T23:19:23.259Z,96.20
2019-05-25T23:21:52.206Z,96.20
2019-05-25T23:24:21.273Z,96.10
2019-05-25T23:26:51.057Z,96.10
2019-05-25T23:29:20.048Z,96.10
2019-05-25T23:31:49.201Z,96.10
2019-05-25T23:34:18.207Z,96.40
2019-05-25T23:36:47.190Z,96.40
2019-05-25T23:39:16.073Z,96.40
2019-05-25T23:41:45.125Z,96.20
2019-05-25T23:44:14.027Z,96.60
2019-05-25T23:46:43.015Z,96.50
2019-05-25T23:49:11.913Z,96.50
2019-05-25T23:51:40.950Z,96.60
2019-05-25T23:54:09.923Z,96.50
2019-05-25T23:56:38.829Z,96.60
2019-05-25T23:59:07.794Z,96.80
